createdAt,value
2019-06-01T05:12:01.954Z,85.95
2019-06-01T05:22:01.751Z,85.63
2019-06-01T05:32:03.963Z,84.15
2019-06-01T05:42:01.661Z,83.65
2019-06-01T05:52:01.443Z,80.12
2019-06-01T06:02:01.709Z,79.17
2019-06-01T06:12:01.722Z,77.32
2019-06-01T06:22:01.151Z,77.09
2019-06-01T06:32:01.830Z,73.69
2019-06-01T06:42:01.903Z,74.72
2019-06-01T06:52:01.789Z,70.95
2019-06-01T07:02:01.927Z,64.09
2019-06-01T07:12:02.218Z,64.09
2019-06-01T07:22:04.036Z,61.57
2019-06-01T07:32:01.751Z,61.57
2019-06-01T07:42:01.883Z,61.35
2019-06-01T07:52:11.997Z,59.72
2019-06-01T08:02:01.376Z,59.03
2019-06-01T08:12:03.993Z,57.71
2019-06-01T08:22:01.807Z,55.04
2019-06-01T08:32:01.882Z,52.03
2019-06-01T08:42:01.839Z,52.38
2019-06-01T08:52:02.019Z,53.61
2019-06-01T09:02:01.871Z,55.55
2019-06-01T09:12:01.859Z,52.94
2019-06-01T09:22:01.892Z,48.47
2019-06-01T09:32:01.390Z,50.56
2019-06-01T09:42:01.892Z,52.70
2019-06-01T09:52:02.473Z,51.28
2019-06-01T10:02:02.101Z,50.82
2019-06-01T10:12:01.859Z,50.86
2019-06-01T10:22:01.441Z,49.69
2019-06-01T10:32:02.099Z,46.97
2019-06-01T10:42:01.370Z,48.50
2019-06-01T10:52:01.140Z,47.92
2019-06-01T11:02:02.113Z,48.99
2019-06-01T11:12:00.974Z,44.94
2019-06-01T11:22:02.087Z,47.81
2019-06-01T11:32:01.034Z,45.55
2019-06-01T11:42:00.959Z,44.35
2019-06-01T11:52:01.770Z,45.33
2019-06-01T12:02:01.121Z,45.10
2019-06-01T12:12:01.098Z,43.45
2019-06-01T12:22:01.269Z,44.34
2019-06-01T12:32:01.236Z,42.96
2019-06-01T12:42:00.999Z,41.11
2019-06-01T12:52:01.696Z,41.25
2019-06-01T13:02:01.865Z,41.88
2019-06-01T13:12:00.962Z,40.84
2019-06-01T13:22:02.074Z,43.76
2019-06-01T13:32:01.447Z,41.53
2019-06-01T13:42:01.305Z,39.68
2019-06-01T13:52:01.282Z,37.59
2019-06-01T14:02:01.148Z,39.10
2019-06-01T14:12:01.568Z,38.37
2019-06-01T14:22:01.724Z,40.29
2019-06-01T14:32:01.385Z,37.92
2019-06-01T14:42:01.234Z,37.56
2019-06-01T14:52:01.496Z,37.53
2019-06-01T15:02:01.378Z,39.78
2019-06-01T15:12:01.589Z,39.18
2019-06-01T15:22:03.533Z,39.06
2019-06-01T15:32:02.409Z,38.83
2019-06-01T15:42:01.418Z,37.46
2019-06-01T15:52:02.777Z,37.16
2019-06-01T16:02:03.399Z,37.04
2019-06-01T16:12:01.758Z,37.77
2019-06-01T16:22:02.649Z,38.58
2019-06-01T16:32:02.957Z,40.80
2019-06-01T16:42:02.138Z,41.05
2019-06-01T16:52:03.253Z,41.47
2019-06-01T17:02:03.383Z,40.60
2019-06-01T17:12:03.051Z,39.93
2019-06-01T17:22:03.492Z,40.94
2019-06-01T17:32:16.747Z,41.26
2019-06-01T17:42:02.525Z,42.47
2019-06-01T17:52:01.908Z,44.66
2019-06-01T18:02:03.529Z,44.61
2019-06-01T18:12:02.161Z,43.49
2019-06-01T18:22:02.621Z,49.63
2019-06-01T18:32:03.003Z,57.00
2019-06-01T18:42:02.059Z,55.89
2019-06-01T18:52:02.150Z,56.81
2019-06-01T19:02:02.319Z,57.58
